KLUK/LUK METAR and TAF weather

Enter ICAO airport designator
Station Type Date Time Source
KLUK METAR 2019/10/15 21:53 UTC NOAA

KLUK 152153Z 20009G18KT 10SM FEW055 23/12 A2985 RMK AO2 SLP109 T02280117


Station Type Date Time Source
KLUK Decoded METAR 2019/10/15 21:53 UTC NOAA

CINCINNATI MUN LUNKEN FLD, OH, United States (KLUK) 39-06N 84-25W 155M
Oct 15, 2019 - 05:53 PM EDT / 2019.10.15 2153 UTC
Wind: from the SSW (200 degrees) at 10 MPH (9 KT) gusting to 21 MPH (18 KT):0
Visibility: 10 mile(s):0
Sky conditions: mostly clear
Temperature: 73.0 F (22.8 C)
Dew Point: 53.1 F (11.7 C)
Relative Humidity: 49%
Pressure (altimeter): 29.85 in. Hg (1010 hPa)
ob: KLUK 152153Z 20009G18KT 10SM FEW055 23/12 A2985 RMK AO2 SLP109 T02280117
cycle: 22

Station Type Date Time Source
KLUK TAF 2019/10/15 21:16 UTC NOAA

TAF
AMD KLUK 152113Z 1521/1618 20010G18KT P6SM SCT040
FM160400 21010G18KT 5SM -SHRA VCTS OVC035CB
FM160700 23010G25KT P6SM -SHRA OVC028
FM160900 30013G28KT P6SM -SHRA OVC015
FM161100 30013G24KT P6SM SCT035 BKN090
FM161300 30013G23KT P6SM BKN025

Example: see airport list